Flight Track Log - Related Links

Times and Time Zones

All times are in EDT time to prevent confusion due to time zone crossing. See the FDX1570 flight status page for this flight to view local times or setup timezone preferences in your user account.

Time Position Orientation Groundspeed Altitude Reporting Facility
EDT Latitude Longitude Course Direction KTS MPH feet Rate Location/Type
Fri 04:29:19 AM 35.1510 -89.6900 79° East 340 391 10,700  Level FlightAware ADS-B
Fri 04:29:43 AM 35.1580 -89.6440 79° East 379 436 10,900 110 Climbing FlightAware ADS-B
Fri 04:31:08 AM 35.1820 -89.4910 79° East 379 436 10,900  Level FlightAware ADS-B
Fri 04:31:33 AM 35.1890 -89.4470 79° East 379 436 10,900 3,669 Level FlightAware ADS-B
Fri 04:33:09 AM 35.2820 -89.1800 67° East 432 497 18,300 3,756 Climbing FlightAware ADS-B
Fri 04:33:44 AM 35.3220 -89.1110 55° Northeast 448 516 19,100 1,941 Climbing FlightAware ADS-B
Fri 04:34:17 AM 35.3640 -89.0420 53° Northeast 445 512 20,500 1,895 Climbing FlightAware ADS-B
Fri 04:35:00 AM 35.4160 -88.9540 54° Northeast 459 528 21,500 732 Climbing FlightAware ADS-B
Fri 04:35:39 AM 35.4580 -88.8840 54° Northeast 459 528 21,500 1,605 Level FlightAware ADS-B
Fri 04:36:26 AM 35.5260 -88.7650 55° Northeast 476 548 23,800 2,561 Climbing FlightAware ADS-B
Fri 04:37:01 AM 35.5690 -88.6930 54° Northeast 472 543 25,000 1,538 Climbing FlightAware ADS-B
Fri 04:37:44 AM 35.6240 -88.6000 54° Northeast 479 551 25,800 1,280 Climbing FlightAware ADS-B
Fri 04:38:16 AM 35.6670 -88.5270 54° Northeast 484 557 26,600 578 Climbing FlightAware ADS-B
Fri 04:39:07 AM 35.7240 -88.4300 54° Northeast 484 557 26,600  Level FlightAware ADS-B
Fri 04:39:43 AM 35.7640 -88.3620 54° Northeast 484 557 26,600  Level FlightAware ADS-B
Fri 04:40:31 AM 35.8180 -88.2710 54° Northeast 484 557 26,600 2,250 Level FlightAware ADS-B
Fri 04:41:51 AM 35.9520 -88.0330 55° Northeast 498 573 31,400 3,107 Climbing FlightAware ADS-B
Fri 04:42:23 AM 35.9970 -87.9560 54° Northeast 498 573 32,400 1,917 Climbing FlightAware ADS-B
Fri 04:43:03 AM 36.0510 -87.8610 55° Northeast 496 571 33,700 2,053 Climbing FlightAware ADS-B
Fri 04:43:39 AM 36.0970 -87.7800 55° Northeast 487 560 35,000 1,737 Climbing FlightAware ADS-B
Fri 04:44:19 AM 36.1500 -87.6870 55° Northeast 490 564 35,900 1,167 Climbing FlightAware ADS-B
Fri 04:44:51 AM 36.1920 -87.6130 55° Northeast 496 571 36,400 971 Climbing FlightAware ADS-B
Fri 04:45:27 AM 36.2380 -87.5310 55° Northeast 498 573 37,000 563 Climbing FlightAware ADS-B
Fri 04:45:55 AM 36.2760 -87.4630 55° Northeast 494 568 37,000  Level FlightAware ADS-B
Fri 04:46:36 AM 36.3280 -87.3700 55° Northeast 497 572 37,000  Level FlightAware ADS-B
Fri 04:47:17 AM 36.3830 -87.2740 55° Northeast 497 572 37,000  Level FlightAware ADS-B
Fri 04:48:01 AM 36.4410 -87.1710 55° Northeast 498 573 37,000  Level FlightAware ADS-B
Fri 04:48:39 AM 36.4920 -87.0790 55° Northeast 499 574 37,000  Level FlightAware ADS-B
Fri 04:49:21 AM 36.5470 -86.9800 55° Northeast 500 575 37,000  Level FlightAware ADS-B
Fri 04:50:02 AM 36.6000 -86.8850 55° Northeast 499 574 37,000  Level FlightAware ADS-B
Fri 04:50:52 AM 36.6665 -86.7650 55° Northeast 497 572 37,000  Level FlightAware ADS-B
Fri 04:51:24 AM 36.7073 -86.6897 56° Northeast 496 571 37,000  Level FlightAware ADS-B
Fri 04:51:55 AM 36.7471 -86.6194 55° Northeast 493 567 37,000  Level FlightAware ADS-B
Fri 04:52:25 AM 36.7866 -86.5467 56° Northeast 491 565 37,000  Level FlightAware ADS-B
Fri 04:52:55 AM 36.8253 -86.4767 55° Northeast 489 563 37,000  Level FlightAware ADS-B
Fri 04:53:27 AM 36.8657 -86.4023 56° Northeast 487 560 37,000  Level FlightAware ADS-B
Fri 04:53:57 AM 36.9036 -86.3328 56° Northeast 486 559 37,000  Level FlightAware ADS-B
Fri 04:54:27 AM 36.9415 -86.2633 56° Northeast 485 558 37,000  Level FlightAware ADS-B
Fri 04:54:57 AM 36.9798 -86.1938 55° Northeast 485 558 37,000  Level FlightAware ADS-B
Fri 04:55:29 AM 37.0197 -86.1196 56° Northeast 484 557 37,000  Level FlightAware ADS-B
Fri 04:56:20 AM 37.0835 -86.0013 56° Northeast 484 557 37,000  Level FlightAware ADS-B
Fri 04:57:11 AM 37.1470 -85.8830 56° Northeast 484 557 37,000  Level FlightAware ADS-B
Fri 04:58:13 AM 37.2240 -85.7410 56° Northeast 488 562 37,000  Level FlightAware ADS-B
Fri 04:59:22 AM 37.3135 -85.5737 56° Northeast 501 577 37,000  Level FlightAware ADS-B
Fri 05:00:13 AM 37.3794 -85.4497 56° Northeast 503 579 37,000  Level FlightAware ADS-B
Fri 05:00:44 AM 37.4194 -85.3745 56° Northeast 502 578 37,000  Level FlightAware ADS-B
Fri 05:01:16 AM 37.4597 -85.2993 56° Northeast 502 578 37,000  Level FlightAware ADS-B
Fri 05:01:46 AM 37.4983 -85.2262 56° Northeast 503 579 37,000  Level FlightAware ADS-B
Fri 05:02:16 AM 37.5380 -85.1506 56° Northeast 502 578 37,000  Level FlightAware ADS-B
Fri 05:02:47 AM 37.5776 -85.0750 57° Northeast 502 578 37,000  Level FlightAware ADS-B
Fri 05:03:18 AM 37.6163 -85.0016 56° Northeast 503 579 37,000  Level FlightAware ADS-B
Fri 05:03:48 AM 37.6550 -84.9280 56° Northeast 502 578 37,000  Level FlightAware ADS-B
Fri 05:04:38 AM 37.7130 -84.8160 57° Northeast 502 578 37,000  Level FlightAware ADS-B
Fri 05:05:18 AM 37.7700 -84.7050 57° Northeast 502 578 37,000  Level FlightAware ADS-B
Fri 05:06:07 AM 37.8329 -84.5849 56° Northeast 503 579 37,000  Level FlightAware ADS-B
Fri 05:06:49 AM 37.8862 -84.4813 57° Northeast 504 580 37,000  Level FlightAware ADS-B
Fri 05:07:22 AM 37.9277 -84.4023 56° Northeast 505 581 37,000  Level FlightAware ADS-B
Fri 05:07:56 AM 37.9710 -84.3180 57° Northeast 504 580 37,000  Level FlightAware ADS-B
Fri 05:08:32 AM 38.0170 -84.2290 57° Northeast 507 583 37,000  Level FlightAware ADS-B
Fri 05:09:00 AM 38.0520 -84.1590 58° Northeast 509 586 37,000  Level FlightAware ADS-B
Fri 05:09:48 AM 38.1140 -84.0380 57° Northeast 514 592 37,000  Level FlightAware ADS-B
Fri 05:10:16 AM 38.1510 -83.9660 57° Northeast 518 596 37,000  Level FlightAware ADS-B
Fri 05:11:29 AM 38.2459 -83.7789 57° Northeast 520 598 37,000  Level FlightAware ADS-B
Fri 05:12:32 AM 38.3270 -83.6160 58° Northeast 522 601 37,000  Level FlightAware ADS-B
Fri 05:13:11 AM 38.3770 -83.5170 57° Northeast 525 604 37,000  Level FlightAware ADS-B
Fri 05:14:22 AM 38.4610 -83.3520 57° Northeast 525 604 37,000  Level FlightAware ADS-B
Fri 05:15:06 AM 38.5280 -83.2130 58° Northeast 526 605 37,000  Level FlightAware ADS-B
Fri 05:15:52 AM 38.5900 -83.0900 57° Northeast 526 605 37,000  Level FlightAware ADS-B
Fri 05:16:24 AM 38.6310 -83.0060 58° Northeast 527 606 37,000  Level FlightAware ADS-B
Fri 05:16:58 AM 38.6757 -82.9162 57° Northeast 527 606 37,000  Level FlightAware ADS-B
Fri 05:17:32 AM 38.7190 -82.8290 58° Northeast 527 606 37,000  Level FlightAware ADS-B
Fri 05:18:04 AM 38.7590 -82.7470 58° Northeast 526 605 37,000  Level FlightAware ADS-B
Fri 05:18:56 AM 38.8270 -82.6070 58° Northeast 526 605 37,000  Level FlightAware ADS-B
Fri 05:19:40 AM 38.8840 -82.4880 58° Northeast 527 606 37,000  Level FlightAware ADS-B
Fri 05:20:16 AM 38.9310 -82.3920 58° Northeast 528 608 37,000  Level FlightAware ADS-B
Fri 05:20:52 AM 38.9760 -82.2990 58° Northeast 529 609 37,000  Level FlightAware ADS-B
Fri 05:21:35 AM 39.0310 -82.1860 58° Northeast 528 608 37,000  Level FlightAware ADS-B
Fri 05:22:16 AM 39.0850 -82.0740 58° Northeast 529 609 37,000  Level FlightAware ADS-B
Fri 05:22:41 AM 39.1160 -82.0070 59° Northeast 529 609 37,000  Level FlightAware ADS-B
Fri 05:23:31 AM 39.1810 -81.8700 58° Northeast 527 606 37,000  Level FlightAware ADS-B
Fri 05:24:19 AM 39.2430 -81.7420 58° Northeast 525 604 37,000  Level FlightAware ADS-B
Fri 05:25:07 AM 39.3030 -81.6130 59° Northeast 525 604 37,000  Level FlightAware ADS-B
Fri 05:25:47 AM 39.3530 -81.5090 58° Northeast 526 605 37,000  Level FlightAware ADS-B
Fri 05:26:35 AM 39.4130 -81.3820 59° Northeast 528 608 37,000  Level FlightAware ADS-B
Fri 05:27:15 AM 39.4650 -81.2690 59° Northeast 528 608 37,000  Level FlightAware ADS-B
Fri 05:28:01 AM 39.5230 -81.1440 59° Northeast 528 608 37,000  Level FlightAware ADS-B
Fri 05:28:49 AM 39.5830 -81.0170 58° Northeast 529 609 37,000  Level FlightAware ADS-B
Fri 05:29:25 AM 39.6280 -80.9190 59° Northeast 529 609 37,000  Level FlightAware ADS-B
Fri 05:30:11 AM 39.6860 -80.7930 59° Northeast 529 609 37,000  Level FlightAware ADS-B
Fri 05:30:49 AM 39.7330 -80.6900 59° Northeast 529 609 37,000  Level FlightAware ADS-B
Fri 05:31:39 AM 39.7960 -80.5530 59° Northeast 529 609 37,000  Level FlightAware ADS-B
Fri 05:32:33 AM 39.8620 -80.4080 59° Northeast 529 609 37,000  Level FlightAware ADS-B
Fri 05:33:21 AM 39.9210 -80.2760 60° Northeast 528 608 37,000  Level FlightAware ADS-B
Fri 05:33:57 AM 39.9670 -80.1750 59° Northeast 529 609 37,000  Level FlightAware ADS-B
Fri 05:34:41 AM 40.0220 -80.0510 60° Northeast 529 609 37,000  Level FlightAware ADS-B
Fri 05:35:25 AM 40.0760 -79.9330 59° Northeast 528 608 37,000  Level FlightAware ADS-B
Fri 05:36:04 AM 40.1240 -79.8250 60° Northeast 527 606 37,000  Level FlightAware ADS-B
Fri 05:36:42 AM 40.1710 -79.7210 59° Northeast 526 605 37,000  Level FlightAware ADS-B
Fri 05:36:58 AM 40.2567 -79.5252 60° Northeast 527 606 37,000  Level FlightAware ADS-B (WMSA / SZB)
Fri 05:37:47 AM 40.2500 -79.5420 243° Southwest 527 606 37,000  Level FlightAware ADS-B
Fri 05:38:20 AM 40.2900 -79.4510 60° Northeast 526 605 37,000  Level FlightAware ADS-B
Fri 05:39:02 AM 40.3423 -79.3318 60° Northeast 527 606 37,000  Level FlightAware ADS-B (KWWD)
Fri 05:39:33 AM 40.3789 -79.2488 60° Northeast 526 605 37,000  Level FlightAware ADS-B (KWWD)
Fri 05:40:05 AM 40.4173 -79.1605 60° Northeast 526 605 37,000  Level FlightAware ADS-B (KWWD)
Fri 05:41:18 AM 40.5060 -78.9553 60° Northeast 526 605 37,000  Level FlightAware ADS-B (KWWD)
Fri 05:42:21 AM 40.5810 -78.7840 60° Northeast 524 603 37,000  Level FlightAware ADS-B
Fri 05:43:02 AM 40.6290 -78.6700 61° Northeast 524 603 37,000  Level FlightAware ADS-B
Fri 05:43:41 AM 40.6740 -78.5670 60° Northeast 526 605 37,000  Level FlightAware ADS-B
Fri 05:44:16 AM 40.7180 -78.4600 61° Northeast 526 605 37,000  Level FlightAware ADS-B
Fri 05:44:59 AM 40.7690 -78.3430 60° Northeast 525 604 37,000  Level FlightAware ADS-B
Fri 05:45:37 AM 40.8148 -78.2337 61° Northeast 526 605 37,000  Level FlightAware ADS-B (KWWD)
Fri 05:46:29 AM 40.8761 -78.0905 60° Northeast 527 606 37,000  Level FlightAware ADS-B (KWWD)
Fri 05:47:09 AM 40.9233 -77.9778 61° Northeast 529 609 37,000  Level FlightAware ADS-B (KWWD)
Fri 05:47:48 AM 40.9736 -77.8669 59° Northeast 529 609 37,000 -343 Level FlightAware ADS-B (KWWD)
Fri 05:48:19 AM 41.0234 -77.7969 47° Northeast 521 600 36,600 -930 Descending FlightAware ADS-B (KWWD)
Fri 05:48:59 AM 41.0970 -77.7138 40° Northeast 516 594 35,900 -973 Descending FlightAware ADS-B (KWWD)
Fri 05:49:33 AM 41.1600 -77.6417 41° Northeast 521 600 35,400 -923 Descending FlightAware ADS-B (KWWD)
Fri 05:50:17 AM 41.2416 -77.5522 39° Northeast 519 597 34,700 -983 Descending FlightAware ADS-B (KWWD)
Fri 05:51:29 AM 41.3740 -77.4070 39° Northeast 518 596 33,500 -1,000 Descending FlightAware ADS-B
Fri 05:52:05 AM 41.4420 -77.3330 39° Northeast 516 594 32,900 -1,040 Descending FlightAware ADS-B
Fri 05:52:44 AM 41.5103 -77.2527 41° Northeast 516 594 32,200 -1,083 Descending FlightAware ADS-B (KWWD)
Fri 05:53:17 AM 41.5581 -77.1647 54° Northeast 525 604 31,600 -1,091 Descending FlightAware ADS-B (KWWD)
Fri 05:53:50 AM 41.6005 -77.0745 58° Northeast 520 598 31,000 -1,167 Descending FlightAware ADS-B (KWWD)
Fri 05:54:29 AM 41.6525 -76.9684 57° Northeast 519 597 30,200 -1,114 Descending FlightAware ADS-B (KWWD)
Fri 05:55:00 AM 41.6927 -76.8845 57° Northeast 514 592 29,700 -971 Descending FlightAware ADS-B (KWWD)
Fri 05:55:37 AM 41.7411 -76.7855 57° Northeast 509 586 29,100 -794 Descending FlightAware ADS-B (KWWD)
Fri 05:56:08 AM 41.7799 -76.7058 57° Northeast 512 589 28,800 -484 Descending FlightAware ADS-B (KWWD)
Fri 05:56:39 AM 41.8205 -76.6208 57° Northeast 508 585 28,600 -423 Descending FlightAware ADS-B (KWWD)
Fri 05:57:19 AM 41.8706 -76.5157 57° Northeast 502 578 28,300 -423 Descending FlightAware ADS-B (KWWD)
Fri 05:57:50 AM 41.9087 -76.4374 57° Northeast 494 568 28,100 -514 Descending FlightAware ADS-B (KWWD)
Fri 05:58:29 AM 41.9572 -76.3335 58° Northeast 491 565 27,700 -500 Descending FlightAware ADS-B (KWWD)
Fri 05:59:38 AM 42.0400 -76.1590 57° Northeast 484 557 27,200 -449 Descending FlightAware ADS-B
Fri 06:00:16 AM 42.0860 -76.0610 58° Northeast 477 549 26,900 -519 Descending FlightAware ADS-B
Fri 06:00:59 AM 42.1350 -75.9580 57° Northeast 474 545 26,500 -506 Descending FlightAware ADS-B
Fri 06:01:39 AM 42.1820 -75.8560 58° Northeast 469 540 26,200 -380 Descending FlightAware ADS-B
Fri 06:02:18 AM 42.2260 -75.7600 58° Northeast 461 531 26,000 -279 Descending FlightAware ADS-B
Fri 06:03:05 AM 42.2650 -75.6360 67° East 456 525 25,800 -279 Descending FlightAware ADS-B
Fri 06:03:44 AM 42.2820 -75.5260 78° East 450 518 25,600 -316 Descending FlightAware ADS-B
Fri 06:04:21 AM 42.2970 -75.4270 78° East 445 512 25,400 -805 Descending FlightAware ADS-B
Fri 06:05:06 AM 42.3150 -75.3060 79° East 435 501 24,500 -2,292 Descending FlightAware ADS-B
Fri 06:05:50 AM 42.3330 -75.1890 78° East 429 494 22,000 -3,383 Descending FlightAware ADS-B
Fri 06:06:40 AM 42.3520 -75.0590 79° East 421 484 19,200 -3,231 Descending FlightAware ADS-B
Fri 06:07:21 AM 42.3670 -74.9540 79° East 413 475 17,100 -2,886 Descending FlightAware ADS-B
Fri 06:07:59 AM 42.3810 -74.8570 79° East 400 460 15,400 -2,514 Descending FlightAware ADS-B
Fri 06:08:35 AM 42.3920 -74.7750 80° East 388 447 14,000 -2,447 Descending FlightAware ADS-B
Fri 06:09:15 AM 42.4060 -74.6790 79° East 375 432 12,300 -2,333 Descending FlightAware ADS-B
Fri 06:09:29 AM 42.4100 -74.6460 81° East 371 427 11,900 -320 Descending FlightAware ADS-B
Fri 06:10:30 AM 42.4270 -74.5280 79° East 371 427 11,900  Level FlightAware ADS-B
Fri 06:11:09 AM 42.4380 -74.4520 79° East 371 427 11,900 -1,172 Level FlightAware ADS-B
Fri 06:11:57 AM 42.4464 -74.3653 79° East 274 315 10,200 -1,685 Descending Boston Center
Fri 06:12:38 AM 42.4550 -74.2925 81° East 278 320 9,400 -1,200 Descending Boston Center
Fri 06:12:57 AM 42.4575 -74.2614 84° East 271 312 9,000 -1,279 Descending Boston Center
Fri 06:13:39 AM 42.4647 -74.1908 82° East 273 314 8,100 -1,143 Descending Boston Center
Fri 06:14:00 AM 42.4658 -74.1597 87° East 273 314 7,800 -1,400 Descending Boston Center
Fri 06:14:39 AM 42.4753 -74.0869 80° East 280 322 6,700 -1,500 Descending Boston Center
Fri 06:15:00 AM 42.4767 -74.0561 86° East 281 323 6,300 -1,279 Descending Boston Center
Fri 06:15:40 AM 42.4847 -73.9836 81° East 278 320 5,400 -1,377 Descending Boston Center
Fri 06:16:01 AM 42.4864 -73.9461 87° East 277 319 4,900 -1,082 Descending Boston Center
Fri 06:16:41 AM 42.4953 -73.8825 79° East 273 314 4,300 -885 Descending Boston Center
Fri 06:17:02 AM 42.5078 -73.8547 59° Northeast 242 278 4,000 -1,300 Descending Boston Center
Fri 06:17:41 AM 42.5353 -73.8208 42° Northeast 216 249 3,000 -1,377 Descending Boston Center
Fri 06:18:03 AM 42.5517 -73.8028 39° Northeast 200 230 2,600 -600 Descending Boston Center
Fri 06:18:41 AM 42.5867 -73.7972 North 185 213 2,400 -310 Descending Boston Center
Fri 06:19:01 AM 42.5975 -73.7978 358° North 151 174 2,300 -194 Descending Boston Center
Fri 06:19:43 AM 42.6272 -73.7994 358° North 153 176 2,200 -240 Descending Boston Center
Fri 06:20:41 AM 42.6578 -73.8008 358° North 118 136 1,900 -380 Descending Boston Center
Fri 06:21:02 AM 42.6653 -73.8033 346° North 106 122 1,700 -600 Descending Boston Center
Fri 06:21:41 AM 42.6889 -73.8025 North 113 130 1,300 -590 Descending Boston Center
Fri 06:22:03 AM 42.6997 -73.8031 358° North 112 129 1,100 -590 Descending Boston Center
Fri 06:22:42 AM 42.7211 -73.8044 357° North 116 133 700 -689 Descending Boston Center
Fri 06:23:04 AM 42.7317 -73.8053 357° North 121 139 400 -387 Descending Boston Center
Fri 06:23:44 AM 42.7558 -73.8075 356° North 119 137 300 -150 Descending Boston Center

Login

Don't have an account? Register now (free) for customized features, flight alerts, and more!